createdAt,value
2017-04-23T00:04:09.454Z,9.20
2017-04-23T00:05:07.716Z,9.20
2017-04-23T00:06:06.676Z,9.10
2017-04-23T00:07:04.979Z,9.10
2017-04-23T00:08:03.333Z,9.20
2017-04-23T00:09:01.633Z,9.20
2017-04-23T00:10:00.035Z,9.20
2017-04-23T00:10:59.051Z,9.20
2017-04-23T00:11:57.334Z,9.20
2017-04-23T00:12:55.644Z,9.10
2017-04-23T00:13:53.918Z,9.10
2017-04-23T00:14:52.974Z,9.00
2017-04-23T00:15:51.332Z,9.00
2017-04-23T00:16:50.373Z,9.00
2017-04-23T00:17:48.665Z,9.00
2017-04-23T00:18:46.938Z,9.00
2017-04-23T00:19:45.205Z,9.00
2017-04-23T00:20:43.512Z,8.90
2017-04-23T00:21:41.760Z,8.90
2017-04-23T00:22:40.246Z,8.90
2017-04-23T00:23:38.518Z,8.90
2017-04-23T00:24:36.830Z,8.90
2017-04-23T00:25:35.087Z,8.90
2017-04-23T00:26:33.407Z,8.90
2017-04-23T00:27:31.872Z,8.80
2017-04-23T00:28:30.265Z,8.80
2017-04-23T00:29:29.296Z,8.80
2017-04-23T00:30:27.647Z,8.80
2017-04-23T00:31:25.875Z,8.70
2017-04-23T00:32:24.149Z,8.70
2017-04-23T00:33:23.131Z,8.70
2017-04-23T00:34:22.149Z,8.70
2017-04-23T00:35:20.383Z,8.70
2017-04-23T00:36:19.456Z,8.60
2017-04-23T00:37:17.837Z,8.60
2017-04-23T00:38:16.952Z,8.60
2017-04-23T00:39:15.152Z,8.60
2017-04-23T00:40:13.411Z,8.60
2017-04-23T00:41:11.736Z,8.60
2017-04-23T00:42:10.025Z,8.60
2017-04-23T00:43:08.330Z,8.60
2017-04-23T00:44:06.647Z,8.50
2017-04-23T00:45:04.944Z,8.50
2017-04-23T00:46:03.286Z,8.50
2017-04-23T00:47:01.554Z,8.50
2017-04-23T00:47:59.878Z,8.50
2017-04-23T00:48:58.164Z,8.50
2017-04-23T00:49:57.142Z,8.40
2017-04-23T00:50:57.153Z,8.40
2017-04-23T00:51:56.127Z,8.50
2017-04-23T00:52:55.141Z,8.50
2017-04-23T00:53:53.420Z,8.40
2017-04-23T00:54:51.677Z,8.40
2017-04-23T00:55:49.952Z,8.40
2017-04-23T00:56:48.200Z,8.40
2017-04-23T00:57:46.533Z,8.40
2017-04-23T00:58:44.831Z,8.40
2017-04-23T00:59:43.820Z,8.40
2017-04-23T01:00:42.529Z,8.40
2017-04-23T01:01:41.686Z,8.40
2017-04-23T01:02:40.002Z,8.40
2017-04-23T01:03:38.745Z,8.40
2017-04-23T01:04:37.176Z,8.40
2017-04-23T01:05:37.733Z,8.40
2017-04-23T01:06:36.044Z,8.40
2017-04-23T01:07:35.055Z,8.40
2017-04-23T01:08:34.212Z,8.40
2017-04-23T01:09:32.495Z,8.40
2017-04-23T01:10:31.399Z,8.40
2017-04-23T01:11:30.472Z,8.30
2017-04-23T01:12:29.527Z,8.20
2017-04-23T01:13:28.501Z,8.20
2017-04-23T01:14:26.784Z,8.30
2017-04-23T01:15:25.099Z,8.30
2017-04-23T01:16:24.280Z,8.30
2017-04-23T01:17:22.819Z,8.30
2017-04-23T01:18:21.223Z,8.30
2017-04-23T01:19:19.699Z,8.20
2017-04-23T01:20:19.054Z,8.20
2017-04-23T01:21:17.296Z,8.20
2017-04-23T01:22:15.571Z,8.10
2017-04-23T01:23:13.840Z,8.20
2017-04-23T01:24:12.207Z,8.20
2017-04-23T01:25:10.543Z,8.20
2017-04-23T01:26:08.874Z,8.20
2017-04-23T01:27:07.964Z,8.20
2017-04-23T01:28:07.015Z,8.20
2017-04-23T01:29:05.900Z,8.10
2017-04-23T01:30:04.930Z,8.10
2017-04-23T01:31:03.235Z,8.00
2017-04-23T01:32:01.542Z,8.00
2017-04-23T01:32:59.881Z,8.00
2017-04-23T01:33:58.156Z,8.10
2017-04-23T01:34:56.439Z,8.00
2017-04-23T01:35:55.431Z,8.00
2017-04-23T01:37:52.535Z,8.00
2017-04-23T01:38:50.954Z,8.00
2017-04-23T01:39:49.986Z,8.00
2017-04-23T01:40:48.884Z,8.10
2017-04-23T01:41:47.266Z,8.10
2017-04-23T01:42:45.532Z,8.10
2017-04-23T01:43:43.977Z,8.00
2017-04-23T01:44:42.616Z,8.10
2017-04-23T01:45:41.012Z,8.10
2017-04-23T01:46:39.997Z,8.10
2017-04-23T01:47:39.445Z,8.00
2017-04-23T01:48:38.517Z,8.00
2017-04-23T01:49:37.620Z,8.00
2017-04-23T01:50:36.689Z,8.00
2017-04-23T01:51:36.336Z,8.00
2017-04-23T01:52:34.760Z,8.00
2017-04-23T01:53:33.740Z,7.90
2017-04-23T01:54:32.895Z,7.90
2017-04-23T01:55:31.361Z,7.80
2017-04-23T01:56:30.172Z,7.80
2017-04-23T01:57:29.220Z,7.70
2017-04-23T01:58:27.532Z,7.70
2017-04-23T01:59:26.619Z,7.70
2017-04-23T02:00:25.676Z,7.70
2017-04-23T02:01:24.191Z,7.70
2017-04-23T02:02:22.706Z,7.70
2017-04-23T02:03:21.623Z,7.70
2017-04-23T02:04:20.602Z,7.70
2017-04-23T02:05:18.825Z,7.70
2017-04-23T02:06:17.156Z,7.70
2017-04-23T02:07:15.483Z,7.70
2017-04-23T02:08:13.800Z,7.70
2017-04-23T02:09:12.093Z,7.70
2017-04-23T02:10:10.446Z,7.60
2017-04-23T02:11:08.922Z,7.60
2017-04-23T02:12:07.872Z,7.70
2017-04-23T02:13:06.819Z,7.60
2017-04-23T02:14:05.078Z,7.60
2017-04-23T02:15:03.335Z,7.60
2017-04-23T02:16:02.026Z,7.50
2017-04-23T02:17:01.076Z,7.50
2017-04-23T02:17:59.347Z,7.50
2017-04-23T02:18:58.676Z,7.50
2017-04-23T02:19:57.036Z,7.50
2017-04-23T02:20:55.507Z,7.40
2017-04-23T02:21:53.764Z,7.40
2017-04-23T02:22:52.098Z,7.40
2017-04-23T02:23:50.599Z,7.40
2017-04-23T02:24:48.842Z,7.40
2017-04-23T02:25:47.155Z,7.40
2017-04-23T02:26:45.385Z,7.30
2017-04-23T02:27:43.643Z,7.30
2017-04-23T02:28:41.919Z,7.30
2017-04-23T02:29:40.305Z,7.30
2017-04-23T02:30:39.520Z,7.30
2017-04-23T02:31:37.831Z,7.30
2017-04-23T02:32:36.107Z,7.30
2017-04-23T02:33:34.548Z,7.30
2017-04-23T02:34:33.515Z,7.20
2017-04-23T02:35:31.970Z,7.30
2017-04-23T02:36:30.184Z,7.30
2017-04-23T02:37:28.450Z,7.30
2017-04-23T02:38:26.675Z,7.30
2017-04-23T02:39:24.986Z,7.30
2017-04-23T02:40:23.837Z,7.30
2017-04-23T02:41:22.992Z,7.30
2017-04-23T02:42:21.358Z,7.30
2017-04-23T02:43:19.705Z,7.30
2017-04-23T02:44:17.951Z,7.30
2017-04-23T02:45:16.268Z,7.20
2017-04-23T02:46:14.504Z,7.20
2017-04-23T02:47:13.370Z,7.20
2017-04-23T02:48:11.734Z,7.20
2017-04-23T02:49:10.105Z,7.20
2017-04-23T02:50:08.383Z,7.20
2017-04-23T02:51:06.644Z,7.20
2017-04-23T02:52:05.954Z,7.20
2017-04-23T02:53:07.796Z,7.20
2017-04-23T02:54:06.042Z,7.10
2017-04-23T02:55:04.646Z,7.20
2017-04-23T02:56:02.948Z,7.20
2017-04-23T02:57:01.334Z,7.20
2017-04-23T02:58:00.337Z,7.10
2017-04-23T02:58:58.664Z,7.20
2017-04-23T02:59:57.075Z,7.20
2017-04-23T03:00:55.343Z,7.20
2017-04-23T03:01:53.260Z,7.20
2017-04-23T03:02:51.820Z,8.80
2017-04-23T03:03:50.135Z,7.20
2017-04-23T03:04:48.412Z,7.20
2017-04-23T03:05:46.723Z,7.10
2017-04-23T03:07:43.733Z,7.20
2017-04-23T03:08:42.083Z,7.20
2017-04-23T03:09:40.355Z,7.20
2017-04-23T03:10:38.818Z,7.10
2017-04-23T03:11:37.163Z,7.20
2017-04-23T03:12:36.171Z,7.30
2017-04-23T03:13:34.817Z,7.20
2017-04-23T03:14:33.355Z,7.20
2017-04-23T03:15:31.616Z,7.20
2017-04-23T03:16:29.919Z,7.10
2017-04-23T03:17:28.286Z,7.10
2017-04-23T03:18:26.609Z,7.00
2017-04-23T03:19:24.911Z,7.00
2017-04-23T03:20:23.220Z,7.00
2017-04-23T03:21:21.511Z,6.90
2017-04-23T03:22:19.972Z,6.90
2017-04-23T03:23:18.316Z,6.80
2017-04-23T03:24:16.560Z,6.80
2017-04-23T03:25:14.975Z,6.80
2017-04-23T03:26:13.372Z,6.90
2017-04-23T03:27:11.621Z,6.80
2017-04-23T03:28:09.901Z,6.80
2017-04-23T03:29:08.185Z,6.70
2017-04-23T03:30:06.502Z,6.70
2017-04-23T03:31:04.788Z,6.80
2017-04-23T03:32:03.122Z,6.70
2017-04-23T03:33:02.199Z,6.70
2017-04-23T03:34:01.227Z,6.70
2017-04-23T03:34:59.420Z,6.70
2017-04-23T03:35:57.720Z,6.70
2017-04-23T03:36:56.730Z,6.70
2017-04-23T03:37:55.163Z,6.70
2017-04-23T03:38:54.150Z,6.70
2017-04-23T03:39:53.148Z,6.70
2017-04-23T03:40:52.214Z,6.70
2017-04-23T03:41:50.590Z,6.70
2017-04-23T03:42:48.940Z,6.60
2017-04-23T03:43:47.243Z,6.70
2017-04-23T03:44:45.525Z,6.70
2017-04-23T03:45:43.871Z,6.60
2017-04-23T03:46:42.883Z,6.60
2017-04-23T03:47:41.356Z,6.60
2017-04-23T03:48:40.212Z,6.60
2017-04-23T03:49:38.515Z,6.60
2017-04-23T03:50:36.781Z,6.60
2017-04-23T03:51:35.025Z,6.50
2017-04-23T03:52:33.251Z,6.40
2017-04-23T03:53:32.368Z,6.40
2017-04-23T03:54:30.685Z,6.50
2017-04-23T03:55:28.995Z,6.50
2017-04-23T03:56:28.001Z,6.50
2017-04-23T03:57:27.818Z,6.50
2017-04-23T03:58:26.098Z,6.50
2017-04-23T03:59:24.428Z,6.40
2017-04-23T04:00:22.800Z,6.50
2017-04-23T04:01:21.182Z,6.50
2017-04-23T04:02:19.433Z,6.30
2017-04-23T04:03:17.735Z,6.30
2017-04-23T04:04:16.046Z,6.30
2017-04-23T04:05:15.260Z,6.40
2017-04-23T04:06:13.520Z,6.40
2017-04-23T04:07:11.839Z,6.40
2017-04-23T04:08:10.192Z,6.30
2017-04-23T04:09:08.479Z,6.30
2017-04-23T04:10:06.788Z,6.20
2017-04-23T04:11:05.349Z,6.10
2017-04-23T04:12:04.347Z,6.10
2017-04-23T04:13:02.661Z,6.10
2017-04-23T04:14:00.906Z,6.10
2017-04-23T04:14:59.249Z,6.10
2017-04-23T04:15:57.552Z,6.20
2017-04-23T04:16:58.974Z,6.10
2017-04-23T04:17:57.282Z,6.10
2017-04-23T04:18:55.586Z,6.10
2017-04-23T04:19:53.865Z,6.10
2017-04-23T04:20:52.375Z,6.10
2017-04-23T04:21:50.755Z,6.10
2017-04-23T04:22:49.074Z,6.10
2017-04-23T04:23:48.378Z,6.20
2017-04-23T04:24:46.840Z,6.20
2017-04-23T04:25:45.151Z,6.20
2017-04-23T04:26:43.411Z,6.20
2017-04-23T04:27:41.726Z,6.20
2017-04-23T04:28:41.119Z,6.20
2017-04-23T04:29:39.932Z,6.30
2017-04-23T04:30:38.298Z,6.20
2017-04-23T04:31:36.503Z,6.20
2017-04-23T04:32:34.767Z,6.30
2017-04-23T04:33:33.071Z,6.40
2017-04-23T04:34:31.330Z,6.40
2017-04-23T04:35:30.150Z,6.50
2017-04-23T04:36:28.476Z,6.50
2017-04-23T04:37:26.774Z,6.60
2017-04-23T04:38:25.059Z,6.60
2017-04-23T04:39:23.323Z,6.60
2017-04-23T04:40:21.655Z,6.70
2017-04-23T04:41:19.911Z,6.60
2017-04-23T04:42:18.236Z,6.60
2017-04-23T04:43:16.547Z,6.60
2017-04-23T04:44:14.829Z,6.50
2017-04-23T04:45:13.064Z,6.50
2017-04-23T04:46:12.159Z,6.50
2017-04-23T04:47:10.517Z,6.50
2017-04-23T04:48:09.573Z,6.50
2017-04-23T04:49:07.854Z,6.60
2017-04-23T04:50:06.178Z,6.70
2017-04-23T04:51:04.481Z,6.70
2017-04-23T04:52:03.397Z,6.70
2017-04-23T04:53:01.752Z,6.70
2017-04-23T04:54:00.845Z,6.70
2017-04-23T04:55:00.822Z,6.70
2017-04-23T04:56:57.939Z,6.70
2017-04-23T04:57:56.243Z,6.60
2017-04-23T04:58:54.517Z,6.50
2017-04-23T04:59:52.833Z,6.50
2017-04-23T05:00:51.363Z,6.40
2017-04-23T05:01:50.448Z,6.30
2017-04-23T05:02:49.427Z,6.40
2017-04-23T05:03:47.713Z,6.50
2017-04-23T05:04:46.842Z,6.50
2017-04-23T05:05:45.162Z,6.50
2017-04-23T05:06:44.200Z,6.50
2017-04-23T05:07:42.806Z,6.50
2017-04-23T05:08:41.842Z,6.50
2017-04-23T05:09:40.152Z,6.60
2017-04-23T05:10:38.435Z,6.60
2017-04-23T05:11:37.507Z,6.60
2017-04-23T05:12:36.509Z,6.70
2017-04-23T05:13:35.558Z,6.70
2017-04-23T05:14:33.856Z,6.80
2017-04-23T05:15:33.017Z,6.70
2017-04-23T05:16:31.295Z,6.70
2017-04-23T05:17:29.542Z,6.70
2017-04-23T05:18:27.809Z,6.70
2017-04-23T05:19:26.127Z,6.80
2017-04-23T05:20:24.452Z,6.80
2017-04-23T05:21:22.701Z,6.80
2017-04-23T05:22:20.970Z,6.80
2017-04-23T05:23:19.431Z,6.90
2017-04-23T05:24:17.725Z,7.00
2017-04-23T05:25:15.983Z,7.00
2017-04-23T05:26:15.023Z,7.00
2017-04-23T05:27:13.307Z,7.10
2017-04-23T05:28:11.573Z,7.10
2017-04-23T05:29:09.870Z,7.10
2017-04-23T05:30:08.139Z,7.10
2017-04-23T05:31:06.427Z,7.10
2017-04-23T05:32:05.440Z,7.10
2017-04-23T05:33:03.756Z,7.10
2017-04-23T05:34:02.066Z,7.20
2017-04-23T05:35:00.358Z,7.30
2017-04-23T05:35:58.653Z,7.30
2017-04-23T05:36:56.923Z,7.40
2017-04-23T05:37:55.251Z,7.50
2017-04-23T05:38:53.589Z,7.60
2017-04-23T05:39:52.639Z,7.60
2017-04-23T05:40:51.012Z,7.40
2017-04-23T05:41:49.371Z,7.30
2017-04-23T05:42:48.405Z,7.30
2017-04-23T05:43:47.003Z,7.30
2017-04-23T05:44:45.311Z,7.40
2017-04-23T05:45:44.115Z,7.50
2017-04-23T05:46:43.193Z,7.50
2017-04-23T05:47:41.458Z,7.60
2017-04-23T05:48:41.049Z,7.70
2017-04-23T05:49:40.098Z,7.80
2017-04-23T05:50:38.597Z,8.00
2017-04-23T05:51:36.950Z,8.00
2017-04-23T05:52:35.224Z,8.10
2017-04-23T05:53:33.688Z,8.10
2017-04-23T05:54:32.066Z,8.10
2017-04-23T05:55:30.390Z,8.10
2017-04-23T05:56:28.806Z,8.00
2017-04-23T05:57:27.253Z,8.00
2017-04-23T05:58:25.498Z,8.00
2017-04-23T05:59:24.471Z,8.00
2017-04-23T06:00:25.000Z,8.00
2017-04-23T06:02:23.793Z,7.90
2017-04-23T06:03:22.994Z,7.90
2017-04-23T06:04:21.432Z,7.90
2017-04-23T06:05:19.844Z,7.90
2017-04-23T06:06:18.442Z,7.80
2017-04-23T06:07:16.730Z,7.70
2017-04-23T06:08:15.820Z,7.50
2017-04-23T06:09:14.088Z,7.50
2017-04-23T06:10:12.337Z,7.60
2017-04-23T06:11:11.437Z,7.60
2017-04-23T06:12:09.826Z,7.60
2017-04-23T06:13:08.127Z,7.50
2017-04-23T06:14:06.521Z,7.40
2017-04-23T06:15:05.606Z,7.30
2017-04-23T06:16:04.133Z,7.40
2017-04-23T06:17:02.431Z,7.40
2017-04-23T06:18:00.734Z,7.40
2017-04-23T06:18:59.749Z,7.50
2017-04-23T06:19:59.639Z,7.60
2017-04-23T06:20:58.069Z,7.60
2017-04-23T06:21:56.357Z,7.60
2017-04-23T06:22:54.589Z,7.60
2017-04-23T06:23:56.903Z,7.50
2017-04-23T06:25:56.778Z,7.30
2017-04-23T06:26:57.261Z,7.40
2017-04-23T06:27:58.257Z,7.60
2017-04-23T06:29:01.927Z,7.80
2017-04-23T06:30:06.371Z,7.80
2017-04-23T06:31:05.793Z,7.80
2017-04-23T06:32:05.022Z,7.90
2017-04-23T06:33:04.513Z,8.10
2017-04-23T06:34:04.690Z,8.30
2017-04-23T06:35:03.773Z,8.60
2017-04-23T06:36:03.461Z,8.80
2017-04-23T06:37:02.735Z,9.00
2017-04-23T06:38:01.422Z,8.90
2017-04-23T06:39:00.122Z,9.00
2017-04-23T06:40:57.449Z,9.10
2017-04-23T06:41:55.679Z,9.20
2017-04-23T06:42:55.516Z,9.20
2017-04-23T06:43:54.226Z,9.20
2017-04-23T06:44:54.159Z,9.30
2017-04-23T06:45:53.741Z,9.20
2017-04-23T06:46:53.167Z,9.20
2017-04-23T06:47:52.690Z,9.10
2017-04-23T06:48:50.953Z,9.00
2017-04-23T06:49:50.787Z,9.00
2017-04-23T06:50:49.106Z,9.10
2017-04-23T06:51:47.461Z,9.10
2017-04-23T06:52:46.224Z,9.10
2017-04-23T06:53:45.425Z,9.10
2017-04-23T06:54:47.013Z,9.10
2017-04-23T06:55:45.859Z,9.00
2017-04-23T06:56:45.406Z,9.00
2017-04-23T06:57:44.522Z,9.10
2017-04-23T06:58:44.540Z,9.10
2017-04-23T06:59:44.634Z,9.20
2017-04-23T07:00:48.906Z,9.30
2017-04-23T07:01:47.162Z,9.30
2017-04-23T07:02:47.961Z,9.30
2017-04-23T07:03:48.242Z,9.30
2017-04-23T07:04:47.381Z,9.40
2017-04-23T07:05:46.581Z,9.50
2017-04-23T07:06:45.037Z,9.70
2017-04-23T07:07:44.438Z,10.00
2017-04-23T07:08:45.880Z,10.30
2017-04-23T07:09:45.805Z,10.60
2017-04-23T07:10:45.980Z,10.70
2017-04-23T07:11:47.943Z,11.00
2017-04-23T07:12:48.516Z,11.30
2017-04-23T07:13:48.641Z,11.40
2017-04-23T07:14:50.911Z,11.50
2017-04-23T07:15:54.032Z,11.50
2017-04-23T07:16:57.996Z,11.60
2017-04-23T07:17:57.963Z,11.80
2017-04-23T07:18:59.346Z,11.70
2017-04-23T07:19:58.253Z,11.50
2017-04-23T07:20:58.035Z,11.30
2017-04-23T07:21:58.462Z,11.40
2017-04-23T07:22:58.784Z,11.70
2017-04-23T07:23:58.793Z,11.90
2017-04-23T07:24:57.244Z,12.10
2017-04-23T07:25:55.654Z,12.10
2017-04-23T07:26:54.207Z,11.80
2017-04-23T07:27:52.487Z,11.50
2017-04-23T07:28:50.915Z,11.30
2017-04-23T07:29:49.954Z,11.20
2017-04-23T07:30:48.502Z,11.10
2017-04-23T07:31:47.008Z,10.90
2017-04-23T07:32:46.882Z,11.00
2017-04-23T07:33:45.513Z,11.30
2017-04-23T07:34:44.318Z,11.90
2017-04-23T07:35:42.626Z,12.50
2017-04-23T07:36:41.622Z,13.10
2017-04-23T07:37:40.682Z,13.70
2017-04-23T07:38:39.083Z,14.60
2017-04-23T07:39:38.460Z,15.40
2017-04-23T07:40:37.965Z,16.10
2017-04-23T07:41:37.696Z,16.30
2017-04-23T07:52:21.051Z,14.10
2017-04-23T07:53:21.043Z,14.20
2017-04-23T07:54:19.427Z,14.10
2017-04-23T07:55:19.600Z,14.10
2017-04-23T07:56:20.231Z,14.20
2017-04-23T07:57:19.780Z,14.10
2017-04-23T07:58:18.678Z,13.90
2017-04-23T07:59:20.433Z,13.90
2017-04-23T08:00:18.831Z,13.60
2017-04-23T08:01:18.895Z,13.30
2017-04-23T08:02:18.764Z,12.80
2017-04-23T08:03:18.294Z,12.50
2017-04-23T08:04:17.273Z,12.30
2017-04-23T08:05:17.064Z,12.10
2017-04-23T08:06:15.635Z,12.00
2017-04-23T08:07:18.045Z,11.90
2017-04-23T08:08:16.687Z,11.80
2017-04-23T08:09:17.834Z,11.80
2017-04-23T08:10:16.136Z,11.70
2017-04-23T08:11:14.391Z,11.70
2017-04-23T08:12:13.124Z,11.60
2017-04-23T08:13:12.097Z,11.70
2017-04-23T08:14:11.179Z,11.70
2017-04-23T08:15:10.247Z,11.70
2017-04-23T08:16:09.504Z,11.80
2017-04-23T08:17:07.760Z,11.80
2017-04-23T08:18:06.057Z,11.80
2017-04-23T08:19:04.527Z,11.80
2017-04-23T08:20:02.817Z,11.80
2017-04-23T08:21:02.150Z,11.80
2017-04-23T08:22:00.447Z,11.70
2017-04-23T08:22:58.703Z,11.60
2017-04-23T08:23:57.008Z,11.50
2017-04-23T08:24:56.035Z,11.40
2017-04-23T08:25:54.932Z,11.40
2017-04-23T08:26:53.287Z,11.30
2017-04-23T08:27:51.546Z,11.20
2017-04-23T08:28:49.781Z,11.20
2017-04-23T08:29:48.747Z,11.10
2017-04-23T08:30:47.111Z,11.00
2017-04-23T08:31:46.148Z,10.90
2017-04-23T08:32:44.471Z,10.90
2017-04-23T08:33:42.729Z,10.80
2017-04-23T08:34:40.986Z,10.70
2017-04-23T08:35:39.248Z,10.70
2017-04-23T08:36:37.503Z,10.70
2017-04-23T08:37:35.862Z,10.60
2017-04-23T08:38:34.581Z,10.60
2017-04-23T08:39:32.866Z,10.60
2017-04-23T08:40:32.953Z,10.60
2017-04-23T08:41:31.205Z,10.60
2017-04-23T08:42:29.508Z,10.60
2017-04-23T08:43:28.283Z,10.60
2017-04-23T08:44:27.352Z,10.70
2017-04-23T08:45:25.924Z,10.70
2017-04-23T08:46:24.416Z,10.70
2017-04-23T08:47:26.229Z,10.80
2017-04-23T08:48:29.603Z,10.80
2017-04-23T08:49:34.119Z,10.90
2017-04-23T08:50:35.141Z,11.10
2017-04-23T08:51:34.743Z,11.20
2017-04-23T08:53:33.433Z,11.30
2017-04-23T08:54:34.347Z,11.50
2017-04-23T09:05:17.653Z,13.60
2017-04-23T09:06:16.028Z,13.40
2017-04-23T09:07:15.456Z,13.10
2017-04-23T09:08:14.756Z,12.90
2017-04-23T09:09:13.625Z,12.70
2017-04-23T09:10:13.927Z,12.50
2017-04-23T09:11:15.804Z,12.40
2017-04-23T09:12:15.201Z,12.30
2017-04-23T09:13:13.850Z,12.10
2017-04-23T09:14:12.955Z,12.00
2017-04-23T09:15:13.553Z,11.90
2017-04-23T09:16:16.387Z,11.80
2017-04-23T09:17:15.404Z,11.70
2017-04-23T09:18:14.650Z,11.50
2017-04-23T09:19:15.000Z,11.40
2017-04-23T09:20:15.053Z,11.30
2017-04-23T09:21:13.835Z,11.30
2017-04-23T09:22:14.035Z,11.20
2017-04-23T09:23:13.712Z,11.20
2017-04-23T09:24:12.664Z,11.10
2017-04-23T09:25:11.311Z,11.10
2017-04-23T09:26:10.702Z,11.10
2017-04-23T09:27:09.632Z,11.00
2017-04-23T09:28:09.023Z,11.00
2017-04-23T09:29:08.094Z,11.00
2017-04-23T09:30:06.380Z,11.10
2017-04-23T09:31:05.249Z,11.10
2017-04-23T09:32:03.538Z,11.20
2017-04-23T09:33:03.087Z,11.20
2017-04-23T09:34:02.437Z,11.10
2017-04-23T09:35:02.151Z,11.10
2017-04-23T09:36:00.592Z,11.20
2017-04-23T09:37:00.134Z,11.20
2017-04-23T09:37:58.498Z,11.00
2017-04-23T09:38:56.749Z,11.00
2017-04-23T09:39:56.583Z,11.00
2017-04-23T09:40:57.992Z,11.00
2017-04-23T09:41:56.290Z,11.00
2017-04-23T09:42:55.305Z,11.10
2017-04-23T09:43:53.736Z,11.10
2017-04-23T09:44:52.104Z,11.10
2017-04-23T09:45:50.515Z,11.10
2017-04-23T09:46:48.770Z,11.10
2017-04-23T09:47:47.063Z,11.10
2017-04-23T09:48:46.075Z,11.20
2017-04-23T09:49:44.646Z,11.20
2017-04-23T09:50:43.089Z,11.20
2017-04-23T09:51:42.215Z,11.30
2017-04-23T09:52:41.218Z,11.40
2017-04-23T09:53:40.207Z,11.60
2017-04-23T09:54:38.469Z,11.70
2017-04-23T09:55:38.033Z,12.00
2017-04-23T09:56:37.203Z,13.00
2017-04-23T09:57:36.219Z,14.40
2017-04-23T09:58:34.535Z,15.90
2017-04-23T09:59:34.277Z,16.90
2017-04-23T10:00:32.543Z,17.80
2017-04-23T10:01:32.012Z,18.20
2017-04-23T10:02:31.000Z,18.10
2017-04-23T10:03:30.260Z,17.70
2017-04-23T10:04:28.543Z,17.10
2017-04-23T10:05:26.975Z,16.70
2017-04-23T10:06:25.270Z,16.40
2017-04-23T10:07:23.497Z,15.90
2017-04-23T10:08:21.753Z,15.50
2017-04-23T10:09:20.061Z,15.10
2017-04-23T10:10:18.327Z,14.90
2017-04-23T10:11:16.642Z,14.60
2017-04-23T10:12:14.944Z,14.40
2017-04-23T10:13:13.232Z,14.10
2017-04-23T10:14:11.472Z,13.90
2017-04-23T10:15:10.011Z,13.70
2017-04-23T10:16:09.043Z,13.50
2017-04-23T10:17:07.375Z,13.50
2017-04-23T10:18:06.675Z,13.40
2017-04-23T10:19:05.656Z,13.30
2017-04-23T10:20:03.978Z,13.30
2017-04-23T10:21:02.333Z,13.10
2017-04-23T10:22:00.610Z,12.90
2017-04-23T10:22:58.979Z,13.00
2017-04-23T10:23:58.354Z,13.00
2017-04-23T10:24:57.566Z,13.00
2017-04-23T10:25:56.882Z,13.00
2017-04-23T10:26:55.802Z,13.00
2017-04-23T10:27:54.134Z,12.90
2017-04-23T10:28:52.576Z,12.90
2017-04-23T10:29:51.625Z,13.10
2017-04-23T10:30:50.030Z,13.10
2017-04-23T10:31:48.341Z,13.20
2017-04-23T10:32:46.644Z,13.30
2017-04-23T10:33:45.066Z,13.40
2017-04-23T10:34:43.616Z,13.50
2017-04-23T10:35:42.623Z,13.60
2017-04-23T10:36:41.551Z,13.70
2017-04-23T10:37:39.955Z,13.90
2017-04-23T10:38:38.915Z,14.00
2017-04-23T10:39:37.191Z,13.90
2017-04-23T10:40:35.519Z,14.00
2017-04-23T10:41:34.341Z,14.00
2017-04-23T10:42:33.530Z,14.30
2017-04-23T10:43:32.532Z,14.10
2017-04-23T10:44:31.683Z,14.30
2017-04-23T10:45:31.118Z,14.50
2017-04-23T10:46:29.417Z,14.80
2017-04-23T10:47:28.682Z,15.10
2017-04-23T10:48:27.030Z,15.50
2017-04-23T10:49:26.575Z,15.60
2017-04-23T10:50:26.043Z,15.70
2017-04-23T10:51:24.958Z,15.70
2017-04-23T10:52:23.216Z,15.40
2017-04-23T10:53:21.906Z,15.40
2017-04-23T10:54:20.191Z,15.50
2017-04-23T10:55:18.496Z,15.40
2017-04-23T10:56:16.802Z,15.10
2017-04-23T10:57:15.191Z,15.00
2017-04-23T10:58:14.148Z,14.50
2017-04-23T10:59:12.474Z,14.30
2017-04-23T11:00:11.543Z,14.20
2017-04-23T11:01:10.739Z,14.00
2017-04-23T11:02:09.844Z,14.20
2017-04-23T11:03:09.251Z,14.40
2017-04-23T11:04:07.824Z,14.20
2017-04-23T11:05:06.169Z,13.90
2017-04-23T11:06:04.444Z,13.70
2017-04-23T11:07:02.739Z,13.50
2017-04-23T11:08:01.011Z,13.40
2017-04-23T11:08:59.396Z,13.30
2017-04-23T11:09:57.710Z,13.20
2017-04-23T11:10:56.056Z,13.20
2017-04-23T11:11:54.298Z,13.30
2017-04-23T11:12:52.682Z,13.20
2017-04-23T11:13:51.809Z,13.10
2017-04-23T11:14:50.182Z,13.20
2017-04-23T11:15:49.133Z,13.30
2017-04-23T11:16:48.149Z,13.30
2017-04-23T11:17:46.622Z,13.30
2017-04-23T11:18:45.097Z,13.20
2017-04-23T11:19:43.548Z,13.30
2017-04-23T11:20:41.854Z,13.30
2017-04-23T11:21:40.430Z,13.30
2017-04-23T11:22:38.797Z,13.30
2017-04-23T11:23:37.152Z,13.20
2017-04-23T11:24:35.441Z,13.10
2017-04-23T11:25:33.779Z,13.00
2017-04-23T11:26:32.072Z,12.90
2017-04-23T11:27:30.730Z,12.90
2017-04-23T11:28:29.083Z,12.90
2017-04-23T11:29:27.695Z,12.90
2017-04-23T11:30:26.228Z,12.90
2017-04-23T11:31:24.495Z,12.90
2017-04-23T11:32:23.331Z,13.10
2017-04-23T11:33:21.636Z,13.30
2017-04-23T11:34:20.077Z,13.40
2017-04-23T11:35:19.070Z,13.40
2017-04-23T11:36:17.481Z,13.40
2017-04-23T11:37:17.325Z,13.50
2017-04-23T11:38:15.773Z,13.70
2017-04-23T11:39:18.885Z,13.70
2017-04-23T11:40:18.139Z,13.60
2017-04-23T11:41:17.456Z,13.60
2017-04-23T11:42:15.821Z,13.60
2017-04-23T11:43:14.313Z,13.70
2017-04-23T11:44:23.656Z,14.20
2017-04-23T11:45:23.234Z,14.90
2017-04-23T11:46:23.506Z,15.20
2017-04-23T11:47:23.495Z,15.30
2017-04-23T11:48:24.112Z,15.50
2017-04-23T11:49:23.811Z,15.70
2017-04-23T11:50:23.896Z,16.00
2017-04-23T11:51:24.283Z,16.80
2017-04-23T11:52:26.064Z,17.80
2017-04-23T11:53:31.903Z,18.00
2017-04-23T11:54:36.329Z,17.70
2017-04-23T11:55:41.376Z,17.70
2017-04-23T11:56:45.346Z,17.80
2017-04-23T11:57:54.117Z,17.10
2017-04-23T11:59:02.155Z,16.50
2017-04-23T12:16:15.848Z,13.90
2017-04-23T12:17:15.135Z,13.90
2017-04-23T12:18:14.239Z,14.00
2017-04-23T12:19:13.976Z,14.10
2017-04-23T12:20:12.422Z,14.20
2017-04-23T12:21:10.715Z,14.20
2017-04-23T12:22:09.453Z,14.20
2017-04-23T12:23:08.013Z,14.10
2017-04-23T12:24:06.294Z,14.00
2017-04-23T12:25:04.771Z,14.20
2017-04-23T12:26:03.119Z,14.20
2017-04-23T12:28:01.138Z,14.10
2017-04-23T12:28:59.426Z,14.10
2017-04-23T12:29:57.743Z,14.10
2017-04-23T12:30:56.030Z,14.00
2017-04-23T12:31:54.393Z,13.90
2017-04-23T12:32:53.446Z,13.90
2017-04-23T12:33:51.752Z,13.80
2017-04-23T12:34:50.050Z,13.70
2017-04-23T12:35:48.346Z,13.70
2017-04-23T12:36:47.639Z,13.70
2017-04-23T12:37:46.001Z,13.70
2017-04-23T12:38:44.865Z,13.70
2017-04-23T12:39:43.242Z,13.70
2017-04-23T12:40:41.584Z,13.80
2017-04-23T12:41:44.277Z,13.80
2017-04-23T12:42:44.201Z,14.00
2017-04-23T12:43:44.087Z,14.20
2017-04-23T12:44:43.368Z,14.60
2017-04-23T12:45:43.925Z,15.20
2017-04-23T12:46:43.409Z,15.60
2017-04-23T12:57:26.820Z,14.80
2017-04-23T12:58:25.195Z,14.70
2017-04-23T12:59:24.409Z,14.50
2017-04-23T13:00:23.209Z,14.40
2017-04-23T13:01:24.884Z,14.40
2017-04-23T13:02:23.288Z,14.30
2017-04-23T13:03:22.736Z,14.30
2017-04-23T13:04:21.244Z,14.50
2017-04-23T13:05:19.720Z,14.80
2017-04-23T13:06:18.764Z,15.40
2017-04-23T13:07:17.071Z,16.00
2017-04-23T13:08:16.607Z,16.40
2017-04-23T13:09:15.249Z,16.60
2017-04-23T13:10:13.987Z,16.70
2017-04-23T13:11:12.420Z,16.70
2017-04-23T13:12:10.819Z,16.80
2017-04-23T13:13:09.924Z,16.70
2017-04-23T13:14:08.317Z,16.60
2017-04-23T13:15:06.599Z,16.60
2017-04-23T13:16:04.969Z,16.40
2017-04-23T13:17:03.535Z,16.30
2017-04-23T13:18:02.641Z,16.30
2017-04-23T13:19:00.939Z,16.20
2017-04-23T13:19:59.319Z,16.10
2017-04-23T13:20:57.976Z,15.80
2017-04-23T13:21:56.549Z,15.50
2017-04-23T13:22:55.481Z,15.30
2017-04-23T13:23:53.923Z,15.20
2017-04-23T13:24:52.423Z,15.30
2017-04-23T13:25:51.577Z,15.30
2017-04-23T13:26:49.863Z,15.30
2017-04-23T13:27:48.900Z,15.40
2017-04-23T13:28:47.754Z,15.30
2017-04-23T13:29:46.811Z,15.10
2017-04-23T13:30:45.193Z,15.20
2017-04-23T13:31:43.608Z,15.30
2017-04-23T13:32:43.165Z,15.40
2017-04-23T13:33:42.387Z,15.30
2017-04-23T13:34:40.756Z,15.20
2017-04-23T13:35:39.653Z,15.10
2017-04-23T13:36:38.098Z,15.20
2017-04-23T13:37:37.743Z,15.30
2017-04-23T13:38:36.091Z,15.30
2017-04-23T13:39:34.466Z,15.30
2017-04-23T13:40:35.595Z,15.30
2017-04-23T13:41:33.944Z,15.20
2017-04-23T13:42:32.243Z,15.20
2017-04-23T13:43:30.914Z,15.30
2017-04-23T13:44:29.377Z,15.40
2017-04-23T13:45:27.793Z,15.50
2017-04-23T13:46:26.259Z,15.50
2017-04-23T13:47:24.668Z,15.20
2017-04-23T13:48:23.013Z,15.00
2017-04-23T13:49:21.525Z,14.80